createdAt,value
2019-04-04T00:01:24.059Z,101387.91
2019-04-04T00:03:51.496Z,101386.96
2019-04-04T00:06:17.777Z,101389.56
2019-04-04T00:08:43.751Z,101387.78
2019-04-04T00:11:09.596Z,101382.06
2019-04-04T00:13:35.641Z,101379.83
2019-04-04T00:16:01.515Z,101382.47
2019-04-04T00:18:27.925Z,101387.78
2019-04-04T00:20:54.132Z,101388.22
2019-04-04T00:23:20.003Z,101384.23
2019-04-04T00:25:45.863Z,101370.60
2019-04-04T00:28:12.979Z,101376.69
2019-04-04T00:30:39.666Z,101371.38
2019-04-04T00:33:05.632Z,101364.75
2019-04-04T00:35:31.728Z,101372.23
2019-04-04T00:37:57.601Z,101375.74
2019-04-04T00:40:23.547Z,101374.45
2019-04-04T00:42:49.551Z,101376.66
2019-04-04T00:45:15.408Z,101379.70
2019-04-04T00:47:41.395Z,101371.82
2019-04-04T00:50:07.614Z,101371.45
2019-04-04T00:52:33.566Z,101369.72
2019-04-04T00:54:59.470Z,101364.48
2019-04-04T00:57:25.464Z,101365.80
2019-04-04T00:59:53.389Z,101359.61
2019-04-04T01:02:19.005Z,101358.70
2019-04-04T01:04:45.077Z,101382.78
2019-04-04T01:07:10.946Z,101383.28
2019-04-04T01:09:36.783Z,101369.25
2019-04-04T01:12:03.266Z,101362.69
2019-04-04T01:14:29.851Z,101358.73
2019-04-04T01:16:55.842Z,101357.86
2019-04-04T01:19:21.926Z,101353.02
2019-04-04T01:21:48.091Z,101349.84
2019-04-04T01:24:13.967Z,101351.53
2019-04-04T01:26:40.006Z,101346.22
2019-04-04T01:29:06.087Z,101346.63
2019-04-04T01:31:32.070Z,101355.86
2019-04-04T01:33:58.123Z,101357.14
2019-04-04T01:36:25.209Z,101357.14
2019-04-04T01:38:51.643Z,101343.92
2019-04-04T01:41:17.664Z,101345.20
2019-04-04T01:43:43.710Z,101340.77
2019-04-04T01:46:09.684Z,101349.56
2019-04-04T01:48:35.673Z,101345.17
2019-04-04T01:51:01.532Z,101351.29
2019-04-04T01:53:28.128Z,101349.97
2019-04-04T01:55:55.302Z,101350.84
2019-04-04T01:58:21.175Z,101352.95
2019-04-04T02:00:47.223Z,101346.79
2019-04-04T02:03:13.289Z,101347.27
2019-04-04T02:05:39.147Z,101342.90
2019-04-04T02:08:04.992Z,101341.07
2019-04-04T02:10:30.997Z,101326.56
2019-04-04T02:12:56.839Z,101343.64
2019-04-04T02:15:22.793Z,101329.09
2019-04-04T02:17:48.876Z,101327.70
2019-04-04T02:20:14.852Z,101332.54
2019-04-04T02:22:40.722Z,101317.11
2019-04-04T02:25:06.883Z,101311.91
2019-04-04T02:27:32.709Z,101304.50
2019-04-04T02:29:58.555Z,101300.55
2019-04-04T02:32:27.527Z,101289.95
2019-04-04T02:34:53.601Z,101283.72
2019-04-04T02:37:21.226Z,101276.72
2019-04-04T02:39:47.370Z,101283.28
2019-04-04T02:42:13.338Z,101276.69
2019-04-04T02:44:39.207Z,101284.60
2019-04-04T02:47:05.356Z,101289.41
2019-04-04T02:49:31.313Z,101310.98
2019-04-04T02:51:57.167Z,101307.98
2019-04-04T02:54:24.785Z,101311.61
2019-04-04T02:56:50.864Z,101320.07
2019-04-04T02:59:20.314Z,101313.11
2019-04-04T03:01:44.829Z,101313.58
2019-04-04T03:04:13.480Z,101311.93
2019-04-04T03:06:38.470Z,101303.14
2019-04-04T03:09:09.055Z,101294.78
2019-04-04T03:11:32.998Z,101287.75
2019-04-04T03:14:03.420Z,101280.64
2019-04-04T03:16:26.863Z,101285.41
2019-04-04T03:18:52.739Z,101272.19
2019-04-04T03:21:22.026Z,101286.25
2019-04-04T03:23:46.442Z,101282.70
2019-04-04T03:26:12.404Z,101278.27
2019-04-04T03:28:38.392Z,101268.19
2019-04-04T03:31:04.489Z,101275.62
2019-04-04T03:33:32.531Z,101283.98
2019-04-04T03:36:00.967Z,101281.37
2019-04-04T03:38:25.962Z,101283.21
2019-04-04T03:40:51.824Z,101239.97
2019-04-04T03:43:17.660Z,101276.80
2019-04-04T03:45:43.713Z,101274.13
2019-04-04T03:48:09.572Z,101266.61
2019-04-04T03:50:35.528Z,101264.81
2019-04-04T03:53:01.559Z,101261.27
2019-04-04T03:55:28.554Z,101257.71
2019-04-04T03:57:55.269Z,101267.31
2019-04-04T04:00:23.290Z,101262.07
2019-04-04T04:02:50.172Z,101267.78
2019-04-04T04:05:27.672Z,101260.78
2019-04-04T04:07:53.495Z,101258.15
2019-04-04T04:10:19.376Z,101258.11
2019-04-04T04:12:45.447Z,101264.67
2019-04-04T04:15:11.430Z,101266.88
2019-04-04T04:17:37.290Z,101260.67
2019-04-04T04:20:04.841Z,101257.13
2019-04-04T04:22:30.713Z,101257.52
2019-04-04T04:24:56.555Z,101256.17
2019-04-04T04:27:22.635Z,101251.80
2019-04-04T04:29:48.498Z,101254.00
2019-04-04T04:32:14.352Z,101247.96
2019-04-04T04:34:40.449Z,101246.72
2019-04-04T04:37:06.296Z,101261.66
2019-04-04T04:39:35.895Z,101264.37
2019-04-04T04:42:00.017Z,101265.77
2019-04-04T04:44:25.858Z,101275.00
2019-04-04T04:46:51.715Z,101271.45
2019-04-04T04:49:17.689Z,101276.28
2019-04-04T04:51:44.272Z,101272.73
2019-04-04T04:54:10.195Z,101276.28
2019-04-04T04:56:36.153Z,101273.17
2019-04-04T04:59:02.034Z,101270.53
2019-04-04T05:01:27.909Z,101274.89
2019-04-04T05:03:56.230Z,101267.78
2019-04-04T05:06:21.781Z,101224.74
2019-04-04T05:08:47.777Z,101260.67
2019-04-04T05:11:14.590Z,101265.48
2019-04-04T05:13:40.667Z,101271.63
2019-04-04T05:16:08.887Z,101272.95
2019-04-04T05:18:34.333Z,101277.75
2019-04-04T05:21:01.966Z,101275.08
2019-04-04T05:23:28.009Z,101272.44
2019-04-04T05:25:54.478Z,101266.31
2019-04-04T05:28:20.363Z,101269.36
2019-04-04T05:30:47.306Z,101271.96
2019-04-04T05:33:13.834Z,101273.35
2019-04-04T05:35:39.921Z,101268.55
2019-04-04T05:38:07.707Z,101271.59
2019-04-04T05:40:33.964Z,101276.83
2019-04-04T05:42:59.751Z,101271.92
2019-04-04T05:45:26.985Z,101271.89
2019-04-04T05:47:54.960Z,101273.17
2019-04-04T05:50:20.606Z,101263.05
2019-04-04T05:52:46.475Z,101259.53
2019-04-04T05:55:12.613Z,101250.70
2019-04-04T05:57:38.566Z,101258.17
2019-04-04T06:00:05.461Z,101259.06
2019-04-04T06:02:31.398Z,101260.41
2019-04-04T06:04:57.584Z,101267.85
2019-04-04T06:07:23.488Z,101269.66
2019-04-04T06:09:49.683Z,101273.57
2019-04-04T06:12:15.631Z,101261.18
2019-04-04T06:14:41.634Z,101257.30
2019-04-04T06:17:07.948Z,101257.70
2019-04-04T06:19:33.969Z,101262.13
2019-04-04T06:21:59.806Z,101255.10
2019-04-04T06:24:27.262Z,101263.93
2019-04-04T06:26:53.568Z,101260.37
2019-04-04T06:29:19.485Z,101255.94
2019-04-04T06:31:45.569Z,101246.75
2019-04-04T06:34:11.592Z,101253.27
2019-04-04T06:36:37.441Z,101257.19
2019-04-04T06:39:05.884Z,101262.87
2019-04-04T06:41:32.477Z,101263.30
2019-04-04T06:43:58.637Z,101264.22
2019-04-04T06:46:24.593Z,101269.46
2019-04-04T06:48:50.473Z,101269.39
2019-04-04T06:51:16.358Z,101273.74
2019-04-04T06:53:42.443Z,101267.91
2019-04-04T06:56:08.294Z,101266.03
2019-04-04T06:58:34.166Z,101265.08
2019-04-04T07:01:00.147Z,101267.64
2019-04-04T07:03:27.920Z,101270.64
2019-04-04T07:05:53.797Z,101269.69
2019-04-04T07:08:19.745Z,101272.76
2019-04-04T07:10:57.139Z,101279.32
2019-04-04T07:13:21.657Z,101278.80
2019-04-04T07:15:46.778Z,101281.84
2019-04-04T07:18:10.167Z,101287.05
2019-04-04T07:20:36.680Z,101286.96
2019-04-04T07:23:02.722Z,101282.13
2019-04-04T07:25:28.608Z,101287.45
2019-04-04T07:27:54.480Z,101286.56
2019-04-04T07:30:20.630Z,101280.80
2019-04-04T07:32:46.526Z,101290.48
2019-04-04T07:35:12.507Z,101286.05
2019-04-04T07:37:38.486Z,101283.44
2019-04-04T07:40:04.865Z,101286.92
2019-04-04T07:42:30.749Z,101279.80
2019-04-04T07:44:56.800Z,101285.41
2019-04-04T07:47:22.659Z,101292.33
2019-04-04T07:49:48.514Z,101295.77
2019-04-04T07:52:17.091Z,101302.28
2019-04-04T07:54:42.436Z,101299.16
2019-04-04T07:57:08.254Z,101308.36
2019-04-04T07:59:34.325Z,101308.69
2019-04-04T08:02:00.182Z,101315.65
2019-04-04T08:04:26.160Z,101316.94
2019-04-04T08:06:52.117Z,101315.52
2019-04-04T08:09:17.992Z,101307.95
2019-04-04T08:11:43.951Z,101308.79
2019-04-04T08:14:09.947Z,101307.39
2019-04-04T08:16:35.800Z,101307.75
2019-04-04T08:19:01.683Z,101309.42
2019-04-04T08:21:27.639Z,101312.45
2019-04-04T08:23:53.519Z,101311.98
2019-04-04T08:26:19.474Z,101313.22
2019-04-04T08:28:45.529Z,101317.53
2019-04-04T08:31:11.398Z,101316.16
2019-04-04T08:33:37.253Z,101316.13
2019-04-04T08:36:06.251Z,101316.61
2019-04-04T08:38:31.127Z,101312.60
2019-04-04T08:40:57.077Z,101316.52
2019-04-04T08:43:23.268Z,101313.84
2019-04-04T08:45:49.148Z,101313.80
2019-04-04T08:48:15.119Z,101315.95
2019-04-04T08:50:41.172Z,101311.91
2019-04-04T08:53:07.055Z,101318.87
2019-04-04T08:55:33.171Z,101306.03
2019-04-04T08:57:59.478Z,101317.80
2019-04-04T09:00:25.334Z,101315.91
2019-04-04T09:02:51.200Z,101320.72
2019-04-04T09:05:17.288Z,101328.60
2019-04-04T09:07:43.129Z,101321.99
2019-04-04T09:10:09.197Z,101334.77
2019-04-04T09:12:35.233Z,101334.29
2019-04-04T09:15:01.237Z,101333.36
2019-04-04T09:17:27.229Z,101338.47
2019-04-04T09:19:53.239Z,101337.94
2019-04-04T09:22:19.154Z,101343.53
2019-04-04T09:24:45.035Z,101353.62
2019-04-04T09:27:11.094Z,101354.89
2019-04-04T09:29:37.070Z,101353.53
2019-04-04T09:32:03.219Z,101353.88
2019-04-04T09:34:29.172Z,101355.56
2019-04-04T09:36:55.161Z,101358.55
2019-04-04T09:39:21.065Z,101364.10
2019-04-04T09:41:47.065Z,101370.58
2019-04-04T09:44:12.938Z,101366.66
2019-04-04T09:46:38.856Z,101367.48
2019-04-04T09:49:04.858Z,101365.15
2019-04-04T09:51:30.725Z,101369.12
2019-04-04T09:53:56.618Z,101385.30
2019-04-04T09:56:22.682Z,101389.17
2019-04-04T09:58:48.580Z,101389.97
2019-04-04T10:01:14.517Z,101388.98
2019-04-04T10:03:40.663Z,101391.06
2019-04-04T10:06:06.641Z,101389.10
2019-04-04T10:08:32.604Z,101391.11
2019-04-04T10:10:58.745Z,101381.75
2019-04-04T10:13:24.717Z,101390.48
2019-04-04T10:15:50.608Z,101387.83
2019-04-04T10:18:16.643Z,101389.06
2019-04-04T10:20:42.598Z,101396.81
2019-04-04T10:23:08.556Z,101395.34
2019-04-04T10:25:34.627Z,101399.62
2019-04-04T10:28:00.510Z,101401.22
2019-04-04T10:30:26.585Z,101404.67
2019-04-04T10:32:52.737Z,101406.33
2019-04-04T10:35:18.592Z,101414.62
2019-04-04T10:37:44.466Z,101417.17
2019-04-04T10:40:11.064Z,101421.45
2019-04-04T10:42:36.919Z,101427.97
2019-04-04T10:45:04.628Z,101430.52
2019-04-04T10:47:30.611Z,101427.77
2019-04-04T10:49:58.547Z,101431.20
2019-04-04T10:52:24.247Z,101433.30
2019-04-04T10:54:50.426Z,101435.85
2019-04-04T10:57:16.430Z,101437.08
2019-04-04T10:59:42.305Z,101435.08
2019-04-04T11:02:08.564Z,101439.28
2019-04-04T11:04:34.433Z,101437.91
2019-04-04T11:07:00.308Z,101407.59
2019-04-04T11:09:26.356Z,101449.09
2019-04-04T11:11:52.270Z,101454.30
2019-04-04T11:14:18.120Z,101456.00
2019-04-04T11:16:44.166Z,101467.01
2019-04-04T11:19:10.279Z,101466.51
2019-04-04T11:21:36.261Z,101467.78
2019-04-04T11:24:02.405Z,101468.68
2019-04-04T11:26:28.314Z,101477.46
2019-04-04T11:28:54.268Z,101479.61
2019-04-04T11:31:20.435Z,101484.37
2019-04-04T11:33:46.299Z,101486.38
2019-04-04T11:36:12.161Z,101480.98
2019-04-04T11:38:38.211Z,101489.71
2019-04-04T11:41:04.104Z,101487.00
2019-04-04T11:43:29.961Z,101484.25
2019-04-04T11:45:56.011Z,101489.00
2019-04-04T11:48:21.865Z,101489.80
2019-04-04T11:50:47.840Z,101500.35
2019-04-04T11:53:13.860Z,101502.41
2019-04-04T11:55:39.748Z,101506.28
2019-04-04T11:58:05.614Z,101506.17
2019-04-04T12:00:36.218Z,101509.20
2019-04-04T12:03:02.272Z,101510.00
2019-04-04T12:05:28.155Z,101515.20
2019-04-04T12:07:54.151Z,101519.13
2019-04-04T12:10:20.114Z,101519.55
2019-04-04T12:12:45.997Z,101514.64
2019-04-04T12:15:12.183Z,101519.45
2019-04-04T12:17:38.024Z,101519.79
2019-04-04T12:20:04.822Z,101525.98
2019-04-04T12:22:30.849Z,101531.23
2019-04-04T12:24:56.758Z,101527.64
2019-04-04T12:27:22.727Z,101536.78
2019-04-04T12:29:48.784Z,101535.05
2019-04-04T12:32:14.644Z,101538.50
2019-04-04T12:34:40.633Z,101540.31
2019-04-04T12:37:06.583Z,101545.96
2019-04-04T12:39:32.436Z,101553.92
2019-04-04T12:41:58.400Z,101553.58
2019-04-04T12:44:24.386Z,101553.98
2019-04-04T12:46:50.301Z,101563.72
2019-04-04T12:49:16.356Z,101561.65
2019-04-04T12:51:42.353Z,101566.08
2019-04-04T12:54:08.209Z,101568.69
2019-04-04T12:56:34.096Z,101570.94
2019-04-04T12:59:00.167Z,101574.55
2019-04-04T13:01:26.144Z,101568.84
2019-04-04T13:03:52.007Z,101574.59
2019-04-04T13:06:17.943Z,101580.39
2019-04-04T13:08:47.248Z,101583.09
2019-04-04T13:11:13.232Z,101591.61
2019-04-04T13:13:41.169Z,101603.25
2019-04-04T13:16:07.018Z,101601.50
2019-04-04T13:18:32.927Z,101608.96
2019-04-04T13:20:58.962Z,101610.69
2019-04-04T13:23:24.822Z,101606.06
2019-04-04T13:25:50.685Z,101601.80
2019-04-04T13:28:16.709Z,101607.11
2019-04-04T13:30:42.560Z,101609.31
2019-04-04T13:33:08.479Z,101620.37
2019-04-04T13:35:37.684Z,101615.45
2019-04-04T13:38:02.179Z,101613.05
2019-04-04T13:40:28.182Z,101609.84
2019-04-04T13:42:54.344Z,101615.00
2019-04-04T13:45:20.243Z,101620.20
2019-04-04T13:47:46.178Z,101617.06
2019-04-04T13:50:12.862Z,101624.98
2019-04-04T13:52:38.756Z,101615.23
2019-04-04T13:55:05.434Z,101623.16
2019-04-04T13:57:31.410Z,101622.75
2019-04-04T13:59:57.274Z,101626.69
2019-04-04T14:02:23.280Z,101624.08
2019-04-04T14:04:49.422Z,101626.73
2019-04-04T14:07:15.272Z,101625.41
2019-04-04T14:09:44.460Z,101628.46
2019-04-04T14:12:08.959Z,101625.86
2019-04-04T14:14:34.841Z,101634.75
2019-04-04T14:17:00.836Z,101638.35
2019-04-04T14:19:26.902Z,101643.36
2019-04-04T14:21:52.909Z,101647.00
2019-04-04T14:24:18.881Z,101641.30
2019-04-04T14:26:46.141Z,101646.27
2019-04-04T14:29:12.310Z,101651.67
2019-04-04T14:31:38.290Z,101651.32
2019-04-04T14:34:04.261Z,101656.68
2019-04-04T14:36:30.228Z,101666.91
2019-04-04T14:38:56.278Z,101669.11
2019-04-04T14:41:22.302Z,101674.77
2019-04-04T14:43:48.301Z,101677.81
2019-04-04T14:46:14.160Z,101674.72
2019-04-04T14:48:42.134Z,101675.80
2019-04-04T14:51:07.843Z,101681.69
2019-04-04T14:53:33.770Z,101684.04
2019-04-04T14:55:59.736Z,101681.48
2019-04-04T14:58:25.604Z,101685.91
2019-04-04T15:00:51.482Z,101689.34
2019-04-04T15:03:17.542Z,101693.68
2019-04-04T15:05:43.407Z,101692.35
2019-04-04T15:08:09.278Z,101700.27
2019-04-04T15:10:35.249Z,101705.08
2019-04-04T15:13:01.142Z,101702.82
2019-04-04T15:15:27.023Z,101702.28
2019-04-04T15:17:53.001Z,101705.77
2019-04-04T15:20:18.973Z,101703.91
2019-04-04T15:22:44.911Z,101706.22
2019-04-04T15:25:11.040Z,101705.38
2019-04-04T15:27:37.097Z,101706.70
2019-04-04T15:30:04.489Z,101704.94
2019-04-04T15:32:30.455Z,101708.08
2019-04-04T15:34:56.320Z,101722.72
2019-04-04T15:37:22.211Z,101721.89
2019-04-04T15:39:48.253Z,101726.70
2019-04-04T15:42:14.290Z,101729.75
2019-04-04T15:44:40.130Z,101726.30
2019-04-04T15:47:06.982Z,101724.98
2019-04-04T15:49:32.965Z,101687.31
2019-04-04T15:51:59.684Z,101725.20
2019-04-04T15:54:25.768Z,101740.06
2019-04-04T15:56:51.633Z,101746.20
2019-04-04T15:59:17.513Z,101761.23
2019-04-04T16:01:43.664Z,101764.34
2019-04-04T16:04:09.550Z,101739.46
2019-04-04T16:06:35.528Z,101784.86
2019-04-04T16:09:01.656Z,101793.08
2019-04-04T16:11:27.537Z,101801.70
2019-04-04T16:13:53.394Z,101809.87
2019-04-04T16:16:19.378Z,101810.53
2019-04-04T16:18:45.301Z,101817.05
2019-04-04T16:21:11.191Z,101830.99
2019-04-04T16:23:37.348Z,101832.48
2019-04-04T16:26:03.710Z,101829.66
2019-04-04T16:28:29.578Z,101836.05
2019-04-04T16:30:55.685Z,101851.65
2019-04-04T16:33:21.666Z,101845.14
2019-04-04T16:35:47.522Z,101849.78
2019-04-04T16:38:13.504Z,101850.84
2019-04-04T16:40:39.458Z,101859.42
2019-04-04T16:43:05.365Z,101872.22
2019-04-04T16:45:31.480Z,101875.85
2019-04-04T16:47:57.470Z,101888.21
2019-04-04T16:50:23.473Z,101887.50
2019-04-04T16:52:49.517Z,101901.80
2019-04-04T16:55:15.526Z,101903.28
2019-04-04T16:57:43.286Z,101905.63
2019-04-04T17:00:10.760Z,101906.94
2019-04-04T17:02:36.629Z,101911.42
2019-04-04T17:05:03.347Z,101911.48
2019-04-04T17:07:29.402Z,101916.44
2019-04-04T17:09:56.181Z,101915.20
2019-04-04T17:12:22.037Z,101921.37
2019-04-04T17:14:47.977Z,101927.61
2019-04-04T17:17:13.860Z,101941.69
2019-04-04T17:19:39.725Z,101937.75
2019-04-04T17:22:05.962Z,101950.25
2019-04-04T17:24:32.078Z,101960.07
2019-04-04T17:26:57.926Z,101954.39
2019-04-04T17:29:23.907Z,101961.95
2019-04-04T17:31:50.282Z,101961.98
2019-04-04T17:34:16.297Z,101961.56
2019-04-04T17:36:42.254Z,101958.51
2019-04-04T17:39:08.527Z,101969.59
2019-04-04T17:41:34.931Z,101969.61
2019-04-04T17:44:01.210Z,101978.02
2019-04-04T17:46:27.462Z,101985.09
2019-04-04T17:48:53.375Z,101992.61
2019-04-04T17:51:19.418Z,101998.31
2019-04-04T17:53:45.675Z,102008.45
2019-04-04T17:56:12.309Z,102015.12
2019-04-04T17:58:38.519Z,102018.28
2019-04-04T18:01:05.503Z,102021.11
2019-04-04T18:03:31.379Z,102016.78
2019-04-04T18:05:57.509Z,102017.24
2019-04-04T18:08:23.381Z,102024.27
2019-04-04T18:10:49.240Z,102020.74
2019-04-04T18:13:15.273Z,102035.70
2019-04-04T18:15:41.269Z,102039.69
2019-04-04T18:18:07.258Z,102039.71
2019-04-04T18:20:33.371Z,102052.54
2019-04-04T18:22:59.260Z,102051.27
2019-04-04T18:25:25.130Z,102059.22
2019-04-04T18:27:51.216Z,102060.56
2019-04-04T18:30:17.207Z,102057.92
2019-04-04T18:32:43.089Z,102066.31
2019-04-04T18:35:09.357Z,102077.34
2019-04-04T18:37:35.543Z,102082.22
2019-04-04T18:40:01.728Z,102088.88
2019-04-04T18:42:27.759Z,102088.50
2019-04-04T18:44:55.977Z,102096.95
2019-04-04T18:47:21.967Z,102098.31
2019-04-04T18:49:48.164Z,102106.28
2019-04-04T18:52:14.033Z,102105.40
2019-04-04T18:54:40.033Z,102117.73
2019-04-04T18:57:06.094Z,102124.78
2019-04-04T18:59:31.969Z,102121.30
2019-04-04T19:01:57.921Z,102124.88
2019-04-04T19:04:24.034Z,102129.75
2019-04-04T19:06:50.031Z,102134.60
2019-04-04T19:09:16.025Z,102137.24
2019-04-04T19:11:42.100Z,102138.56
2019-04-04T19:14:08.070Z,102148.20
2019-04-04T19:16:33.929Z,102153.92
2019-04-04T19:19:00.052Z,102151.70
2019-04-04T19:21:26.028Z,102156.08
2019-04-04T19:23:51.974Z,102163.56
2019-04-04T19:26:18.029Z,102167.13
2019-04-04T19:28:44.098Z,102178.56
2019-04-04T19:31:10.235Z,102175.11
2019-04-04T19:33:36.303Z,102174.25
2019-04-04T19:36:02.264Z,102186.20
2019-04-04T19:38:28.179Z,102188.00
2019-04-04T19:40:54.216Z,102195.97
2019-04-04T19:43:20.168Z,102199.55
2019-04-04T19:45:46.011Z,102198.70
2019-04-04T19:48:12.099Z,102208.88
2019-04-04T19:50:39.285Z,102216.81
2019-04-04T19:53:05.372Z,102218.15
2019-04-04T19:55:31.419Z,102222.56
2019-04-04T19:57:57.296Z,102230.05
2019-04-04T20:00:23.753Z,102234.03
2019-04-04T20:02:49.726Z,102239.31
2019-04-04T20:05:15.831Z,102248.55
2019-04-04T20:07:41.812Z,102247.64
2019-04-04T20:10:07.863Z,102246.77
2019-04-04T20:12:33.736Z,102252.53
2019-04-04T20:14:59.711Z,102260.03
2019-04-04T20:17:25.785Z,102261.81
2019-04-04T20:19:51.642Z,102271.92
2019-04-04T20:22:17.605Z,102264.91
2019-04-04T20:24:43.578Z,102275.46
2019-04-04T20:27:09.578Z,102233.50
2019-04-04T20:29:35.522Z,102282.16
2019-04-04T20:32:01.572Z,102292.77
2019-04-04T20:34:27.470Z,102292.33
2019-04-04T20:36:53.433Z,102293.27
2019-04-04T20:39:19.465Z,102293.31
2019-04-04T20:41:45.369Z,102307.34
2019-04-04T20:44:11.216Z,102301.16
2019-04-04T20:46:37.261Z,102303.78
2019-04-04T20:49:03.230Z,102308.16
2019-04-04T20:51:29.061Z,102316.53
2019-04-04T20:53:55.084Z,102315.67
2019-04-04T20:56:20.967Z,102320.98
2019-04-04T20:58:46.967Z,102320.99
2019-04-04T21:01:13.002Z,102328.02
2019-04-04T21:03:38.986Z,102326.69
2019-04-04T21:06:04.978Z,102335.49
2019-04-04T21:08:31.097Z,102331.55
2019-04-04T21:10:56.970Z,102337.70
2019-04-04T21:13:22.851Z,102338.61
2019-04-04T21:15:48.879Z,102347.42
2019-04-04T21:18:14.892Z,102350.50
2019-04-04T21:20:40.772Z,102346.97
2019-04-04T21:23:06.780Z,102350.93
2019-04-04T21:25:32.764Z,102356.66
2019-04-04T21:27:58.648Z,102354.88
2019-04-04T21:30:24.813Z,102356.20
2019-04-04T21:32:50.711Z,102355.35
2019-04-04T21:35:16.711Z,102361.08
2019-04-04T21:37:42.735Z,102362.84
2019-04-04T21:40:08.678Z,102369.02
2019-04-04T21:42:34.635Z,102370.76
2019-04-04T21:45:00.662Z,102373.39
2019-04-04T21:47:26.508Z,102372.98
2019-04-04T21:49:52.419Z,102372.10
2019-04-04T21:52:18.442Z,102374.75
2019-04-04T21:54:44.286Z,102376.55
2019-04-04T21:57:10.174Z,102375.23
2019-04-04T21:59:36.240Z,102385.78
2019-04-04T22:02:02.184Z,102382.70
2019-04-04T22:04:28.162Z,102378.76
2019-04-04T22:06:54.218Z,102385.80
2019-04-04T22:09:20.096Z,102383.64
2019-04-04T22:11:46.225Z,102384.52
2019-04-04T22:14:21.703Z,102384.12
2019-04-04T22:16:40.715Z,102390.30
2019-04-04T22:19:06.618Z,102388.53
2019-04-04T22:21:32.698Z,102392.06
2019-04-04T22:23:58.529Z,102394.71
2019-04-04T22:26:24.451Z,102395.14
2019-04-04T22:28:50.426Z,102395.59
2019-04-04T22:31:16.423Z,102398.70
2019-04-04T22:33:42.319Z,102406.16
2019-04-04T22:36:08.284Z,102400.89
2019-04-04T22:38:34.156Z,102407.05
2019-04-04T22:41:00.118Z,102413.64
2019-04-04T22:43:26.248Z,102416.70
2019-04-04T22:45:52.116Z,102418.03
2019-04-04T22:48:18.005Z,102423.77
2019-04-04T22:50:44.130Z,102426.40
2019-04-04T22:53:09.978Z,102422.87
2019-04-04T22:55:35.837Z,102421.56
2019-04-04T22:58:01.875Z,102423.73
2019-04-04T23:00:27.739Z,102423.73
2019-04-04T23:02:53.829Z,102431.64
2019-04-04T23:05:19.868Z,102426.84
2019-04-04T23:07:45.765Z,102434.28
2019-04-04T23:10:11.735Z,102435.17
2019-04-04T23:12:37.686Z,102436.91
2019-04-04T23:15:05.503Z,102436.91
2019-04-04T23:17:31.345Z,102447.91
2019-04-04T23:19:57.277Z,102443.50
2019-04-04T23:22:23.246Z,102447.45
2019-04-04T23:24:49.115Z,102441.33
2019-04-04T23:27:15.245Z,102443.96
2019-04-04T23:29:42.581Z,102445.28
2019-04-04T23:32:08.602Z,102445.70
2019-04-04T23:34:34.586Z,102443.07
2019-04-04T23:37:00.459Z,102453.61
2019-04-04T23:39:26.364Z,102449.65
2019-04-04T23:41:52.434Z,102444.38
2019-04-04T23:44:18.306Z,102454.02
2019-04-04T23:46:44.261Z,102460.61
2019-04-04T23:49:10.320Z,102461.92
2019-04-04T23:51:36.182Z,102468.08
2019-04-04T23:54:02.155Z,102474.65
2019-04-04T23:56:28.197Z,102473.33
2019-04-04T23:58:54.173Z,102475.07
